Big Bear Station Historical Data
Daily Summary for May 15, 2017 Units:  English    Metric   Both
« Previous Day
Next Day »
Daily Weekly Monthly Yearly Custom
  High: Low: Average:
Temperature: 48.6 °F 26.4 °F 35.6 °F
Dew Point: 33.2 °F 19.2 °F 28.4 °F
Humidity: 93 % 51 % 76 %
Wind Speed: 7.3 mph 0.0 mph 2.5 mph
Wind Gust: -999.0 mph - -
Wind:- - SW
Pressure: 29.95 in 29.87 in -
Precipitation: 0.00 in    
Historical Graphs
 
 
Tabular Data for May 15, 2017
Time Temperature Dew Point Pressure Wind Wind Speed Wind Gust Humidity Rainfall Rate (Hourly)
00:08 31.1 °F 26.8 °F 29.92 in Calm   -999.0 mph 84 % 0 in
00:23 30.7 °F 26.2 °F 29.91 in NE 3.2 mph -999.0 mph 83 % 0 in
00:40 30.7 °F 27.3 °F 29.91 in WNW 1.1 mph -999.0 mph 87 % 0 in
00:55 30.4 °F 27.0 °F 29.91 in Calm   -999.0 mph 87 % 0 in
01:11 29.8 °F 26.4 °F 29.91 in Calm   -999.0 mph 87 % 0 in
01:26 29.5 °F 25.8 °F 29.90 in Calm   -999.0 mph 86 % 0 in
01:41 28.9 °F 24.4 °F 29.90 in Calm   -999.0 mph 83 % 0 in
01:57 28.8 °F 23.7 °F 29.90 in South 2.2 mph -999.0 mph 81 % 0 in
02:12 28.2 °F 23.4 °F 29.89 in South 1.1 mph -999.0 mph 82 % 0 in
02:27 28.2 °F 23.7 °F 29.89 in Calm   -999.0 mph 83 % 0 in
02:42 28.0 °F 23.5 °F 29.89 in South 1.7 mph -999.0 mph 83 % 0 in
02:58 27.5 °F 22.4 °F 29.89 in Calm   -999.0 mph 81 % 0 in
03:13 27.1 °F 22.0 °F 29.88 in SE 1.7 mph -999.0 mph 81 % 0 in
03:29 27.1 °F 21.5 °F 29.88 in SSE 1.7 mph -999.0 mph 79 % 0 in
03:44 27.3 °F 21.0 °F 29.88 in SSE 1.7 mph -999.0 mph 77 % 0 in
03:59 26.4 °F 19.2 °F 29.88 in Calm   -999.0 mph 74 % 0 in
04:14 27.1 °F 23.2 °F 29.87 in Calm   -999.0 mph 85 % 0 in
04:29 27.0 °F 21.7 °F 29.87 in Calm   -999.0 mph 80 % 0 in
04:45 26.8 °F 23.2 °F 29.87 in Calm   -999.0 mph 86 % 0 in
05:00 27.3 °F 25.5 °F 29.87 in NNE 4.7 mph -999.0 mph 93 % 0 in
05:15 27.3 °F 25.3 °F 29.87 in NW 2.2 mph -999.0 mph 92 % 0 in
05:30 27.5 °F 25.5 °F 29.87 in NW 4.2 mph -999.0 mph 92 % 0 in
05:45 27.9 °F 25.1 °F 29.88 in Calm   -999.0 mph 89 % 0 in
06:01 28.0 °F 25.2 °F 29.87 in NW 1.7 mph -999.0 mph 89 % 0 in
06:16 28.6 °F 25.8 °F 29.88 in NW 1.1 mph -999.0 mph 89 % 0 in
06:31 28.2 °F 24.8 °F 29.88 in Calm   -999.0 mph 87 % 0 in
06:46 28.8 °F 25.4 °F 29.88 in WNW 1.7 mph -999.0 mph 87 % 0 in
07:01 29.1 °F 25.2 °F 29.88 in NNE 2.2 mph -999.0 mph 85 % 0 in
07:17 29.1 °F 25.2 °F 29.88 in NNE 1.1 mph -999.0 mph 85 % 0 in
07:32 29.8 °F 25.6 °F 29.88 in South 2.7 mph -999.0 mph 84 % 0 in
07:47 31.5 °F 26.6 °F 29.87 in NW 3.2 mph -999.0 mph 82 % 0 in
08:03 32.0 °F 25.0 °F 29.88 in NW 4.7 mph -999.0 mph 75 % 0 in
08:18 32.9 °F 26.5 °F 29.88 in WNW 4.2 mph -999.0 mph 77 % 0 in
08:33 34.0 °F 27.5 °F 29.88 in NNW 3.7 mph -999.0 mph 77 % 0 in
08:48 34.7 °F 26.6 °F 29.88 in WNW 5.8 mph -999.0 mph 72 % 0 in
09:03 35.6 °F 26.8 °F 29.88 in NNW 3.2 mph -999.0 mph 70 % 0 in
09:19 36.9 °F 27.7 °F 29.88 in North 4.2 mph -999.0 mph 69 % 0 in
09:34 38.5 °F 28.5 °F 29.88 in NW 5.8 mph -999.0 mph 67 % 0 in
09:49 39.2 °F 29.9 °F 29.88 in WNW 4.7 mph -999.0 mph 69 % 0 in
10:04 39.9 °F 29.5 °F 29.88 in WNW 4.7 mph -999.0 mph 66 % 0 in
10:19 40.1 °F 29.3 °F 29.89 in NW 2.7 mph -999.0 mph 65 % 0 in
10:35 39.0 °F 29.3 °F 29.89 in SW 4.7 mph -999.0 mph 68 % 0 in
10:50 39.4 °F 29.7 °F 29.89 in NW 6.3 mph -999.0 mph 68 % 0 in
11:05 40.6 °F 29.4 °F 29.89 in WNW 6.8 mph -999.0 mph 64 % 0 in
11:21 42.6 °F 29.7 °F 29.90 in NNE 7.3 mph -999.0 mph 60 % 0 in
11:36 43.5 °F 28.4 °F 29.90 in WNW 3.7 mph -999.0 mph 55 % 0 in
11:52 46.2 °F 29.1 °F 29.90 in East 1.7 mph -999.0 mph 51 % 0 in
12:07 46.4 °F 29.7 °F 29.91 in NNW 6.3 mph -999.0 mph 52 % 0 in
12:22 45.7 °F 29.1 °F 29.91 in NE 4.2 mph -999.0 mph 52 % 0 in
12:38 45.7 °F 30.9 °F 29.91 in WNW 2.7 mph -999.0 mph 56 % 0 in
12:53 47.3 °F 31.5 °F 29.91 in SW 2.7 mph -999.0 mph 54 % 0 in
13:08 47.1 °F 32.2 °F 29.91 in NW 4.7 mph -999.0 mph 56 % 0 in
13:24 45.7 °F 30.9 °F 29.91 in WNW 4.7 mph -999.0 mph 56 % 0 in
13:39 48.6 °F 33.2 °F 29.91 in North 2.2 mph -999.0 mph 55 % 0 in
13:54 44.1 °F 31.9 °F 29.92 in ESE 4.2 mph -999.0 mph 62 % 0 in
14:09 45.3 °F 31.8 °F 29.92 in NNW 2.7 mph -999.0 mph 59 % 0 in
14:24 45.3 °F 32.2 °F 29.92 in NNW 3.2 mph -999.0 mph 60 % 0 in
14:40 43.5 °F 30.9 °F 29.93 in West 5.8 mph -999.0 mph 61 % 0 in
14:55 41.5 °F 31.0 °F 29.93 in South 2.2 mph -999.0 mph 66 % 0 in
15:10 40.5 °F 30.4 °F 29.93 in NNW 2.7 mph -999.0 mph 67 % 0 in
15:25 40.6 °F 30.9 °F 29.93 in West 3.7 mph -999.0 mph 68 % 0 in
15:40 42.3 °F 31.4 °F 29.93 in ESE 2.2 mph -999.0 mph 65 % 0 in
15:56 42.3 °F 31.7 °F 29.92 in SSE 1.7 mph -999.0 mph 66 % 0 in
16:11 41.9 °F 32.1 °F 29.92 in South 1.7 mph -999.0 mph 68 % 0 in
16:26 40.8 °F 31.4 °F 29.92 in NW 5.3 mph -999.0 mph 69 % 0 in
16:42 40.3 °F 33.0 °F 29.92 in WSW 4.7 mph -999.0 mph 75 % 0 in
16:57 40.3 °F 32.0 °F 29.92 in SSW 1.7 mph -999.0 mph 72 % 0 in
17:12 40.8 °F 31.4 °F 29.92 in NE 2.2 mph -999.0 mph 69 % 0 in
17:28 40.3 °F 30.6 °F 29.92 in NW 4.2 mph -999.0 mph 68 % 0 in
17:43 39.9 °F 30.9 °F 29.92 in NNE 3.7 mph -999.0 mph 70 % 0 in
17:58 40.3 °F 31.3 °F 29.92 in Calm   -999.0 mph 70 % 0 in
18:13 39.4 °F 31.5 °F 29.92 in SSW 2.7 mph -999.0 mph 73 % 0 in
18:28 38.7 °F 31.8 °F 29.92 in SSW 3.2 mph -999.0 mph 76 % 0 in
18:44 37.4 °F 31.5 °F 29.93 in ESE 1.1 mph -999.0 mph 79 % 0 in
18:59 36.7 °F 31.1 °F 29.92 in NW 3.7 mph -999.0 mph 80 % 0 in
19:14 36.0 °F 31.3 °F 29.92 in WNW 1.1 mph -999.0 mph 83 % 0 in
19:29 35.2 °F 30.9 °F 29.92 in South 3.2 mph -999.0 mph 84 % 0 in
19:45 35.6 °F 30.9 °F 29.93 in Calm   -999.0 mph 83 % 0 in
20:00 35.6 °F 30.9 °F 29.93 in Calm   -999.0 mph 83 % 0 in
20:15 35.2 °F 31.4 °F 29.93 in Calm   -999.0 mph 86 % 0 in
20:31 35.2 °F 30.9 °F 29.94 in WNW 2.7 mph -999.0 mph 84 % 0 in
20:46 35.1 °F 31.0 °F 29.93 in SSW 1.1 mph -999.0 mph 85 % 0 in
21:01 34.9 °F 30.3 °F 29.94 in NNE 1.1 mph -999.0 mph 83 % 0 in
21:17 34.5 °F 29.9 °F 29.94 in SSW 1.7 mph -999.0 mph 83 % 0 in
21:32 34.3 °F 30.0 °F 29.95 in NW 4.2 mph -999.0 mph 84 % 0 in
21:47 34.5 °F 30.2 °F 29.95 in SSW 1.1 mph -999.0 mph 84 % 0 in
22:02 34.5 °F 30.5 °F 29.95 in Calm   -999.0 mph 85 % 0 in
22:17 34.3 °F 30.5 °F 29.95 in NNW 3.7 mph -999.0 mph 86 % 0 in
22:33 34.2 °F 30.7 °F 29.95 in North 5.8 mph -999.0 mph 87 % 0 in
22:48 34.2 °F 30.7 °F 29.95 in Calm   -999.0 mph 87 % 0 in
23:03 34.2 °F 30.7 °F 29.95 in Calm   -999.0 mph 87 % 0 in
23:18 34.3 °F 30.5 °F 29.95 in West 3.7 mph -999.0 mph 86 % 0 in
23:33 34.5 °F 30.7 °F 29.95 in WNW 3.2 mph -999.0 mph 86 % 0 in
23:49 34.5 °F 30.7 °F 29.95 in SW 1.7 mph -999.0 mph 86 % 0 in
Big Bear CA Weather
Compliments of Weather Underground - 1.5 mb